Bw Prince — LADQ7 — position and weather

sailwx.info

Track history (hours):
 
Tides and Currents Weather Stations Pressure Air Temp Water Temp Dewpoint Dewpoint Depression Visibility Wind Speed Wind Dir Waves Ship Positions

Bw Prince

Last reported at 2018-May-19 14:41 UTC. Time now 2018-May-22 16:02 UTC.
Position N 29°44' W 095°07'.

Length 225 m; draft 7.8 m.

Type: Tanker. MMSI: 259708000.

Date/timePositionNaut miles runAvg speedWind from/ knotsBaromVisibWave heightAir tempDewpointWater temp
2018-May-19 14:41N 29°44' W 095°07'1 4.5
2018-May-19 14:30N 29°45' W 095°06'2 4.6
2018-May-19 13:58N 29°44' W 095°04'3 7.0
2018-May-19 13:30N 29°42' W 095°01'510.9
2018-May-19 13:00N 29°38' W 094°58'612.6
2018-May-19 12:30N 29°32' W 094°54'714.1
2018-May-19 12:00N 29°26' W 094°50'713.9
2018-May-19 11:30N 29°21' W 094°45'713.8
2018-May-19 11:00N 29°18' W 094°38'13 0.8
2018-May-18 18:59N 29°08' W 094°29'4 8.3
2018-May-18 18:30N 29°05' W 094°26'510.5
2018-May-18 18:00N 29°00' W 094°24'714.0
2018-May-18 17:30N 28°53' W 094°24'1113.8
2018-May-18 16:42N 28°42' W 094°24'714.2
2018-May-18 16:13N 28°35' W 094°25'314.7
2018-May-18 16:00N 28°32' W 094°25'5513.8
2018-May-18 12:01N 27°38' W 094°14'014.5
2018-May-18 11:59N 27°38' W 094°14'5 7.0
2018-May-18 11:16N 27°34' W 094°10'1 5.3
2018-May-18 11:00N 27°32' W 094°10'613.1
2018-May-18 10:30N 27°26' W 094°07'714.1
2018-May-18 10:00N 27°20' W 094°03'714.1
2018-May-18 09:30N 27°14' W 093°59'1413.9
2018-May-18 08:29N 27°02' W 093°50'3113.8
2018-May-18 06:13N 26°38' W 093°28'413.7
2018-May-18 05:55N 26°35' W 093°25'  
2018-May-14 01:35N 09°30' W 079°55'112.5
2018-May-14 01:30N 09°29' W 079°55'612.3
2018-May-14 01:00N 09°22' W 079°55'4 7.8
2018-May-14 00:30N 09°19' W 079°55'2 3.7
2018-May-14 00:00N 09°17' W 079°55'0 0.3
2018-May-13 23:29N 09°16' W 079°55'0 0.5
2018-May-13 23:00N 09°16' W 079°55'0 0.5
2018-May-13 22:30N 09°16' W 079°55'0 0.0
2018-May-13 22:00N 09°16' W 079°55'0 0.9
2018-May-13 21:29N 09°16' W 079°55'0 0.4
2018-May-13 20:59N 09°15' W 079°55'0 0.2
2018-May-13 20:30N 09°15' W 079°55'3 5.4
2018-May-13 20:00N 09°13' W 079°56'0 0.4
2018-May-13 19:10N 09°13' W 079°56'0 0.1
2018-May-13 18:55N 09°13' W 079°56'0 0.1
2018-May-13 18:25N 09°13' W 079°56'0 0.2
2018-May-13 17:55N 09°13' W 079°56'0 0.0
2018-May-13 17:28N 09°13' W 079°56'0 0.1
2018-May-13 16:52N 09°13' W 079°56'0 0.1
2018-May-13 16:04N 09°13' W 079°56'0 0.1
2018-May-13 15:58N 09°13' W 079°56'0 0.0
2018-May-13 15:22N 09°13' W 079°56'0 0.0
2018-May-13 14:58N 09°13' W 079°56'0 0.0
2018-May-13 14:28N 09°13' W 079°56'0 0.1
2018-May-13 13:58N 09°13' W 079°56'0 0.0
2018-May-13 13:16N 09°13' W 079°56'0 0.1
2018-May-13 13:00N 09°13' W 079°56'1 1.3
2018-May-13 12:30N 09°12' W 079°55'  
Track history (hours):
 
Tides and Currents Weather Stations Pressure Air Temp Water Temp Dewpoint Dewpoint Depression Visibility Wind Speed Wind Dir Waves Ship Positions

Bw Prince

Last reported at 2018-May-19 14:41 UTC. Time now 2018-May-22 16:02 UTC.
Position N 29°44' W 095°07'.

Length 225 m; draft 7.8 m.

Type: Tanker. MMSI: 259708000.

Date/timePositionNaut miles runAvg speedWind from/ knotsBaromVisibWave heightAir tempDewpointWater temp
2018-May-19 14:41N 29°44' W 095°07'1 4.5
2018-May-19 14:30N 29°45' W 095°06'2 4.6
2018-May-19 13:58N 29°44' W 095°04'3 7.0
2018-May-19 13:30N 29°42' W 095°01'510.9
2018-May-19 13:00N 29°38' W 094°58'612.6
2018-May-19 12:30N 29°32' W 094°54'714.1
2018-May-19 12:00N 29°26' W 094°50'713.9
2018-May-19 11:30N 29°21' W 094°45'713.8
2018-May-19 11:00N 29°18' W 094°38'13 0.8
2018-May-18 18:59N 29°08' W 094°29'4 8.3
2018-May-18 18:30N 29°05' W 094°26'510.5
2018-May-18 18:00N 29°00' W 094°24'714.0
2018-May-18 17:30N 28°53' W 094°24'1113.8
2018-May-18 16:42N 28°42' W 094°24'714.2
2018-May-18 16:13N 28°35' W 094°25'314.7
2018-May-18 16:00N 28°32' W 094°25'5513.8
2018-May-18 12:01N 27°38' W 094°14'014.5
2018-May-18 11:59N 27°38' W 094°14'5 7.0
2018-May-18 11:16N 27°34' W 094°10'1 5.3
2018-May-18 11:00N 27°32' W 094°10'613.1
2018-May-18 10:30N 27°26' W 094°07'714.1
2018-May-18 10:00N 27°20' W 094°03'714.1
2018-May-18 09:30N 27°14' W 093°59'1413.9
2018-May-18 08:29N 27°02' W 093°50'3113.8
2018-May-18 06:13N 26°38' W 093°28'413.7
2018-May-18 05:55N 26°35' W 093°25'  
2018-May-14 01:35N 09°30' W 079°55'112.5
2018-May-14 01:30N 09°29' W 079°55'612.3
2018-May-14 01:00N 09°22' W 079°55'4 7.8
2018-May-14 00:30N 09°19' W 079°55'2 3.7
2018-May-14 00:00N 09°17' W 079°55'0 0.3
2018-May-13 23:29N 09°16' W 079°55'0 0.5
2018-May-13 23:00N 09°16' W 079°55'0 0.5
2018-May-13 22:30N 09°16' W 079°55'0 0.0
2018-May-13 22:00N 09°16' W 079°55'0 0.9
2018-May-13 21:29N 09°16' W 079°55'0 0.4
2018-May-13 20:59N 09°15' W 079°55'0 0.2
2018-May-13 20:30N 09°15' W 079°55'3 5.4
2018-May-13 20:00N 09°13' W 079°56'0 0.4
2018-May-13 19:10N 09°13' W 079°56'0 0.1
2018-May-13 18:55N 09°13' W 079°56'0 0.1
2018-May-13 18:25N 09°13' W 079°56'0 0.2
2018-May-13 17:55N 09°13' W 079°56'0 0.0
2018-May-13 17:28N 09°13' W 079°56'0 0.1
2018-May-13 16:52N 09°13' W 079°56'0 0.1
2018-May-13 16:04N 09°13' W 079°56'0 0.1
2018-May-13 15:58N 09°13' W 079°56'0 0.0
2018-May-13 15:22N 09°13' W 079°56'0 0.0
2018-May-13 14:58N 09°13' W 079°56'0 0.0
2018-May-13 14:28N 09°13' W 079°56'0 0.1
2018-May-13 13:58N 09°13' W 079°56'0 0.0
2018-May-13 13:16N 09°13' W 079°56'0 0.1
2018-May-13 13:00N 09°13' W 079°56'1 1.3
2018-May-13 12:30N 09°12' W 079°55'  

Dump ship's entire track history